Thunder radar more information blitzortung!


avis per Pluja more information rain snow radar


Visita la nostra xarxa de llocs de meteo:

Template documentation
and downloads

And another site



Rain From: 17-10-2018 23:00 Until: 18-10-2018 16:59 warning for: Rain Level: Yellow info button

Pagina Historial Weather Underground text

Diari Resum Marc 10, 2016 Unitats:  Mètric    Imperial   Tant
« Previous Dia
SegĂźent Dia »
Diari Setmana Mensual Anual Personalitzada
  Maxima: Minima: Media:
Temperatura: -17.8 °C -16.1 °C -12.1 °C
Punt de rosada: -17.8 °C -21.2 °C -19.2 °C
Humitat: Humidity % 31 % 42 %
Wind Speed: 0 km/h 0 km/h 7.6 km/h
RĂ fegues de vent: 0 km/h - -
Vent:- - South
Pression baro: 0 hPa 34198.6 hPa -
Precipitacions: 0 mm    
Historical Graphs
 
 
Dades de taula per Marc 10, 2016
Temps Temperatura Punt de rosada Pression baro Vent Wind Speed RĂ fegues de vent Humitat Rainfall Rate (Hourly)
-17.8 °C -17.8 °C 0 hPa Calm     Humidity % 0 mm
03:05 -15.4 °C -18.8 °C 34198.6 hPa ENE 5.1 km/h 7.7 km/h 65 % 0 mm
03:15 -15.3 °C -18.6 °C 34198.6 hPa NE 2.6 km/h 10.3 km/h 65 % 0 mm
03:25 -15.1 °C -18.6 °C 34198.6 hPa North 5.1 km/h 10.3 km/h 64 % 0 mm
03:35 -14.8 °C -18.4 °C 34222.3 hPa NNE 5.1 km/h 10.3 km/h 63 % 0 mm
03:45 -14.8 °C -18.4 °C 34222.3 hPa NE 7.7 km/h 12.9 km/h 63 % 0 mm
03:55 -14.6 °C -18.3 °C 34222.3 hPa NE 2.6 km/h 7.7 km/h 62 % 0 mm
04:05 -14.4 °C -18.3 °C 34222.3 hPa NE 7.7 km/h 15.6 km/h 61 % 0 mm
04:15 -14.3 °C -18.2 °C 34222.3 hPa NNE 7.7 km/h 12.9 km/h 61 % 0 mm
04:25 -14.1 °C -18 °C 34222.3 hPa NE 7.7 km/h 10.3 km/h 61 % 0 mm
04:35 -13.9 °C -17.9 °C 34256.2 hPa ENE 7.7 km/h 10.3 km/h 60 % 0 mm
04:45 -13.6 °C -17.7 °C 34256.2 hPa NE 2.6 km/h 7.7 km/h 60 % 0 mm
04:55 -13.4 °C -17.6 °C 34256.2 hPa NE 7.7 km/h 7.7 km/h 59 % 0 mm
10:58 -13.4 °C -17.6 °C 34256.2 hPa ENE 9 km/h 11.6 km/h 59 % 0 mm
11:03 -13.2 °C -17.6 °C 34256.2 hPa ENE 11.9 km/h 11.9 km/h 58 % 0 mm
11:08 -12.9 °C -17.3 °C 34256.2 hPa WNW 9 km/h 9 km/h 58 % 0 mm
11:13 -13 °C -17.4 °C 34256.2 hPa NW 15 km/h 15 km/h 57 % 0 mm
11:18 -12.8 °C -17.3 °C 34256.2 hPa ENE 8 km/h 8 km/h 57 % 0 mm
11:23 -12.8 °C -17.4 °C 34256.2 hPa ENE 11.9 km/h 11.9 km/h 56 % 0 mm
11:28 -12.8 °C -17.6 °C 34256.2 hPa ENE 11.9 km/h 11.9 km/h 55 % 0 mm
11:33 -12.4 °C -17.1 °C 34256.2 hPa South 8 km/h 8 km/h 56 % 0 mm
11:38 -12.2 °C -17 °C 34256.2 hPa NE 11.1 km/h 11.1 km/h 55 % 0 mm
11:43 -12.2 °C -17 °C 34256.2 hPa NNE 6 km/h 6 km/h 55 % 0 mm
11:48 -11.9 °C -16.9 °C 34256.2 hPa WNW 6 km/h 6 km/h 54 % 0 mm
11:53 -11.9 °C -16.8 °C 34256.2 hPa NE 11.9 km/h 11.9 km/h 54 % 0 mm
12:03 -11.8 °C -16.9 °C 34256.2 hPa NNE 10.3 km/h 10.3 km/h 53 % 0 mm
12:13 -11.4 °C -16.6 °C 34256.2 hPa ENE 11.9 km/h 11.9 km/h 53 % 0 mm
12:23 -11.3 °C -16.6 °C 34256.2 hPa NE 9 km/h 9 km/h 52 % 0 mm
12:28 -11.1 °C -16.4 °C 34256.2 hPa ENE 6.8 km/h 6.8 km/h 52 % 0 mm
12:38 -10.8 °C -16.3 °C 34256.2 hPa NNE 6 km/h 6 km/h 51 % 0 mm
12:43 -10.6 °C -16.3 °C 34256.2 hPa NNW 9 km/h 9 km/h 50 % 0 mm
12:48 -10.6 °C -16.4 °C 34256.2 hPa NNE 9 km/h 9 km/h 49 % 0 mm
12:53 -10.6 °C -16.4 °C 34256.2 hPa South 6 km/h 6 km/h 49 % 0 mm
12:58 -10.4 °C -16.4 °C 34222.3 hPa NNE 9 km/h 9 km/h 48 % 0 mm
13:03 -10.3 °C -16.3 °C 34222.3 hPa NNW 9 km/h 9 km/h 48 % 0 mm
13:08 -9.9 °C -16.2 °C 34222.3 hPa SSW 9 km/h 9 km/h 47 % 0 mm
13:13 -10.1 °C -16.6 °C 34256.2 hPa SW 20.9 km/h 20.9 km/h 45 % 0 mm
13:23 -9.8 °C -16.3 °C 34256.2 hPa West 3.1 km/h   45 % 0 mm
13:28 -9.7 °C -16.2 °C 34222.3 hPa NNW 6 km/h 6 km/h 45 % 0 mm
13:33 -9.7 °C -16.6 °C 34222.3 hPa NNW 10.3 km/h 10.3 km/h 43 % 0 mm
13:38 -9.7 °C -16.4 °C 34222.3 hPa WSW 11.9 km/h 11.9 km/h 44 % 0 mm
13:43 -9.5 °C -16.3 °C 34222.3 hPa West 12.7 km/h 12.7 km/h 44 % 0 mm
13:48 -9.4 °C -16.4 °C 34222.3 hPa SW 6 km/h 6 km/h 43 % 0 mm
13:53 -9.7 °C -17.4 °C 34222.3 hPa WNW 9 km/h 9 km/h 39 % 0 mm
13:58 -9.6 °C -17.3 °C 34222.3 hPa ESE 9 km/h 9 km/h 39 % 0 mm
14:03 -9.4 °C -16.9 °C 34222.3 hPa SSE 6.8 km/h 6.8 km/h 40 % 0 mm
14:08 -9.4 °C -16.9 °C 34222.3 hPa WSW 9.3 km/h 9.3 km/h 40 % 0 mm
14:13 -9.2 °C -17.3 °C 34222.3 hPa SSW 19.2 km/h 19.2 km/h 37 % 0 mm
14:18 -9.2 °C -17.3 °C 34222.3 hPa SSW 17.9 km/h 17.9 km/h 37 % 0 mm
14:23 -9.2 °C -17.3 °C 34222.3 hPa SW 9.3 km/h 9.3 km/h 37 % 0 mm
14:28 -9.2 °C -17.8 °C 34222.3 hPa SW 20.9 km/h 20.9 km/h 35 % 0 mm
14:33 -9.1 °C -17.9 °C 34222.3 hPa WSW 15 km/h 15 km/h 34 % 0 mm
14:38 -9.3 °C -18.1 °C 34222.3 hPa NE 9.8 km/h 9.8 km/h 34 % 0 mm
14:43 -9.6 °C -18.3 °C 34222.3 hPa ENE 11.9 km/h 11.9 km/h 34 % 0 mm
14:48 -9.6 °C -18.3 °C 34222.3 hPa WSW 9 km/h 9 km/h 34 % 0 mm
14:53 -9.3 °C -17.9 °C 34222.3 hPa SW 11.9 km/h 11.9 km/h 35 % 0 mm
14:58 -8.9 °C -17.6 °C 34222.3 hPa SW 11.9 km/h 11.9 km/h 35 % 0 mm
15:03 -8.5 °C -17.1 °C 34222.3 hPa East 11.9 km/h 11.9 km/h 35 % 0 mm
15:13 -8.6 °C -17.4 °C 34222.3 hPa West 11.9 km/h 11.9 km/h 34 % 0 mm
15:18 -8.7 °C -17.7 °C 34222.3 hPa SSW 20.9 km/h 20.9 km/h 33 % 0 mm
15:23 -8.8 °C -17.9 °C 34222.3 hPa SW 11.9 km/h 11.9 km/h 33 % 0 mm
15:28 -8.8 °C -17.8 °C 34256.2 hPa SW 6 km/h 6 km/h 33 % 0 mm
15:33 -8.6 °C -17.7 °C 34256.2 hPa SSW 15 km/h 15 km/h 33 % 0 mm
15:43 -8.9 °C -18.2 °C 34222.3 hPa SW 11.9 km/h 11.9 km/h 32 % 0 mm
15:48 -8.8 °C -18.1 °C 34222.3 hPa SSE 15 km/h 15 km/h 32 % 0 mm
15:53 -8.8 °C -18.1 °C 34222.3 hPa SSW 16.6 km/h 16.6 km/h 32 % 0 mm
15:58 -8.8 °C -18.4 °C 34256.2 hPa SSW 15 km/h 15 km/h 31 % 0 mm
16:03 -8.6 °C -18.2 °C 34256.2 hPa WSW 15.6 km/h 15.6 km/h 31 % 0 mm
16:08 -8.6 °C -18.2 °C 34256.2 hPa WSW 15 km/h 15 km/h 31 % 0 mm
16:13 -8.7 °C -18.3 °C 34256.2 hPa NNW 11.9 km/h 11.9 km/h 31 % 0 mm
16:18 -9.1 °C -18.6 °C 34256.2 hPa East 15 km/h 15 km/h 31 % 0 mm
16:28 -9.1 °C -18.6 °C 34256.2 hPa ESE 20.9 km/h 20.9 km/h 31 % 0 mm
16:33 -9.7 °C -18.8 °C 34256.2 hPa ESE 17.9 km/h 17.9 km/h 32 % 0 mm
16:43 -9.7 °C -18.9 °C 34256.2 hPa ESE 15 km/h 15 km/h 32 % 0 mm
16:53 -9.9 °C -19.1 °C 34256.2 hPa ESE 23.8 km/h 23.8 km/h 32 % 0 mm
16:58 -9.8 °C -19 °C 34256.2 hPa ESE 15 km/h 15 km/h 32 % 0 mm
17:03 -9.8 °C -19 °C 34256.2 hPa ESE 20.9 km/h 20.9 km/h 32 % 0 mm
17:13 -10 °C -19.1 °C 34256.2 hPa ENE 23.8 km/h 23.8 km/h 32 % 0 mm
17:18 -10.1 °C -19.2 °C 34256.2 hPa SSE 20.9 km/h 20.9 km/h 32 % 0 mm
17:23 -10.1 °C -19.2 °C 34256.2 hPa South 20.9 km/h 20.9 km/h 32 % 0 mm
17:28 -9.8 °C -19 °C 34293.4 hPa East 9 km/h 9 km/h 32 % 0 mm
17:33 -9.7 °C -18.7 °C 34293.4 hPa SSW 15 km/h 15 km/h 33 % 0 mm
17:38 -9.7 °C -18.7 °C 34293.4 hPa SW 22 km/h 22 km/h 33 % 0 mm
17:43 -9.8 °C -18.9 °C 34293.4 hPa SW 17.9 km/h 17.9 km/h 32 % 0 mm
17:48 -9.7 °C -18.9 °C 34293.4 hPa SW 11.9 km/h 11.9 km/h 32 % 0 mm
17:50 -14.1 °C -20.2 °C 34395 hPa Calm   5.1 km/h 45 % 0 mm
17:53 -9.7 °C -18.8 °C 34293.4 hPa SSW 9 km/h 9 km/h 32 % 0 mm
17:58 -9.6 °C -18.8 °C 34293.4 hPa WSW 12.7 km/h 12.7 km/h 32 % 0 mm
18:00 -14.1 °C -20.3 °C 34395 hPa Calm     45 % 0 mm
18:03 -9.7 °C -18.9 °C 34293.4 hPa WSW 14 km/h 14 km/h 32 % 0 mm
18:08 -9.8 °C -19 °C 34293.4 hPa SSW 12.2 km/h 12.2 km/h 32 % 0 mm
18:10 -14.1 °C -20.1 °C 34395 hPa NE 2.6 km/h 5.1 km/h 46 % 0 mm
18:13 -10 °C -19.4 °C 34327.3 hPa WSW 15 km/h 15 km/h 31 % 0 mm
18:18 -10.2 °C -19.6 °C 34327.3 hPa SW 15.3 km/h 15.3 km/h 31 % 0 mm
18:20 -14.4 °C -20.4 °C 34395 hPa Calm   5.1 km/h 46 % 0 mm
18:23 -10.4 °C -19.7 °C 34327.3 hPa SW 14.5 km/h 14.5 km/h 31 % 0 mm
18:28 -10.5 °C -19.8 °C 34293.4 hPa WSW 9 km/h 9 km/h 31 % 0 mm
18:30 -14.6 °C -20.5 °C 34395 hPa Calm   2.6 km/h 46 % 0 mm
18:33 -10.6 °C -19.9 °C 34293.4 hPa SW 15 km/h 15 km/h 31 % 0 mm
18:38 -10.7 °C -20 °C 34293.4 hPa WSW 15 km/h 15 km/h 31 % 0 mm
18:40 -14.6 °C -20.4 °C 34395 hPa Calm   2.6 km/h 47 % 0 mm
18:43 -10.8 °C -20.1 °C 34327.3 hPa SW 10.3 km/h 10.3 km/h 31 % 0 mm
18:48 -10.9 °C -19.9 °C 34327.3 hPa SW 9 km/h 9 km/h 32 % 0 mm
18:50 -14.5 °C -20.3 °C 34395 hPa North 2.6 km/h 2.6 km/h 47 % 0 mm
18:53 -10.9 °C -19.9 °C 34327.3 hPa SW 7.6 km/h 7.6 km/h 32 % 0 mm
18:58 -11.2 °C -20.2 °C 34327.3 hPa WSW 15 km/h 15 km/h 32 % 0 mm
19:00 -14.2 °C -19.8 °C 34395 hPa WSW 5.1 km/h 5.1 km/h 48 % 0 mm
19:03 -11.3 °C -20.3 °C 34327.3 hPa WSW 12.7 km/h 12.7 km/h 32 % 0 mm
19:08 -11.4 °C -20.4 °C 34327.3 hPa SW 9 km/h 9 km/h 32 % 0 mm
19:10 -14.2 °C -19.8 °C 34395 hPa Calm   5.1 km/h 49 % 0 mm
19:13 -11.5 °C -20.4 °C 34361.1 hPa WSW 9 km/h 9 km/h 32 % 0 mm
19:18 -11.6 °C -20.6 °C 34361.1 hPa SW 9 km/h 9 km/h 32 % 0 mm
19:23 -11.7 °C -20.6 °C 34361.1 hPa SSW 8.5 km/h 8.5 km/h 32 % 0 mm
19:28 -11.8 °C -20.7 °C 34361.1 hPa SW 9 km/h 9 km/h 32 % 0 mm
19:30 -14.6 °C -19.9 °C 34395 hPa Calm   5.1 km/h 50 % 0 mm
19:33 -11.8 °C -20.7 °C 34361.1 hPa SW 9 km/h 9 km/h 32 % 0 mm
19:38 -11.8 °C -20.7 °C 34361.1 hPa SW 9 km/h 9 km/h 32 % 0 mm
19:40 -14.6 °C -19.9 °C 34395 hPa Calm   5.1 km/h 50 % 0 mm
19:43 -11.8 °C -20.7 °C 34361.1 hPa SW 9 km/h 9 km/h 32 % 0 mm
19:48 -11.8 °C -20.7 °C 34361.1 hPa SW 9 km/h 9 km/h 32 % 0 mm
19:50 -14.7 °C -19.9 °C 34428.8 hPa Calm   5.1 km/h 51 % 0 mm
19:53 -11.8 °C -20.7 °C 34361.1 hPa North 3.1 km/h   32 % 0 mm
19:58 -12.3 °C -20.9 °C 34361.1 hPa NNW 3.1 km/h 3.1 km/h 33 % 0 mm
20:00 -14.9 °C -20.2 °C 34395 hPa Calm   2.6 km/h 50 % 0 mm
20:03 -12.3 °C -20.9 °C 34361.1 hPa NE 3.1 km/h   33 % 0 mm
20:08 -12.3 °C -20.7 °C 34361.1 hPa Calm     34 % 0 mm
20:10 -15 °C -20.3 °C 34395 hPa Calm   2.6 km/h 50 % 0 mm
20:13 -12.4 °C -20.8 °C 34361.1 hPa Calm     34 % 0 mm
20:18 -12.5 °C -20.9 °C 34361.1 hPa Calm     34 % 0 mm
20:20 -15.1 °C -20.4 °C 34395 hPa WNW 5.1 km/h 7.7 km/h 50 % 0 mm
20:23 -12.6 °C -20.9 °C 34361.1 hPa Calm     34 % 0 mm
20:28 -12.7 °C -21.1 °C 34361.1 hPa Calm     34 % 0 mm
20:30 -15.2 °C -20.5 °C 34361.1 hPa West 2.6 km/h 5.1 km/h 50 % 0 mm
20:33 -12.7 °C -21.1 °C 34361.1 hPa Calm     34 % 0 mm
20:38 -12.8 °C -21.2 °C 34361.1 hPa Calm     34 % 0 mm
20:40 -15.2 °C -20.5 °C 34361.1 hPa WSW 2.6 km/h 2.6 km/h 50 % 0 mm
20:43 -12.8 °C -21.2 °C 34361.1 hPa Calm     34 % 0 mm
20:48 -12.9 °C -21.1 °C 34361.1 hPa Calm     35 % 0 mm
20:50 -15.3 °C -20.6 °C 34395 hPa WSW 2.6 km/h 2.6 km/h 50 % 0 mm
20:53 -13 °C -21.1 °C 34361.1 hPa Calm     35 % 0 mm
20:58 -13.1 °C -21.2 °C 34361.1 hPa WSW 3.1 km/h   35 % 0 mm
21:00 -15.3 °C -20.6 °C 34395 hPa Calm   2.6 km/h 50 % 0 mm
21:03 -13.1 °C -20.9 °C 34361.1 hPa Calm     36 % 0 mm
21:08 -13.1 °C -20.9 °C 34361.1 hPa Calm     36 % 0 mm
21:10 -15.4 °C -20.5 °C 34395 hPa Calm   5.1 km/h 51 % 0 mm
21:13 -13.1 °C -21 °C 34361.1 hPa Calm     36 % 0 mm
21:18 -13.1 °C -20.8 °C 34361.1 hPa Calm     37 % 0 mm
21:20 -15.4 °C -20.5 °C 34395 hPa WSW 2.6 km/h 5.1 km/h 51 % 0 mm
21:23 -13.1 °C -20.8 °C 34361.1 hPa Calm     37 % 0 mm
21:28 -13.2 °C -20.9 °C 34361.1 hPa Calm     37 % 0 mm
21:30 -15.4 °C -20.5 °C 34395 hPa Calm   2.6 km/h 51 % 0 mm
21:38 -13.2 °C -20.7 °C 34361.1 hPa Calm     38 % 0 mm
21:40 -15.6 °C -20.7 °C 34395 hPa Calm   5.1 km/h 51 % 0 mm
21:43 -13.2 °C -20.7 °C 34395 hPa Calm     38 % 0 mm
21:48 -13.2 °C -20.7 °C 34395 hPa Calm     38 % 0 mm
21:53 -13.3 °C -20.6 °C 34395 hPa Calm     39 % 0 mm
21:58 -13.3 °C -20.4 °C 34361.1 hPa Calm     40 % 0 mm
22:00 -15.6 °C -20.7 °C 34395 hPa West 2.6 km/h 5.1 km/h 51 % 0 mm
22:03 -13.3 °C -20.4 °C 34361.1 hPa Calm   3.7 km/h 40 % 0 mm
22:08 -13.3 °C -20.4 °C 34361.1 hPa Calm   3.7 km/h 40 % 0 mm
22:10 -15.7 °C -20.8 °C 34395 hPa Calm   2.6 km/h 51 % 0 mm
22:13 -13.3 °C -20.4 °C 34395 hPa Calm   3.7 km/h 40 % 0 mm
22:18 -13.4 °C -20.5 °C 34395 hPa Calm   3.7 km/h 40 % 0 mm
22:20 -15.7 °C -20.7 °C 34395 hPa Calm   2.6 km/h 52 % 0 mm
22:23 -13.4 °C -20.6 °C 34395 hPa Calm   3.7 km/h 40 % 0 mm
22:28 -13.6 °C -20.7 °C 34395 hPa WSW 3.7 km/h 4.2 km/h 40 % 0 mm
22:30 -15.7 °C -20.7 °C 34395 hPa Calm     52 % 0 mm
22:33 -13.6 °C -20.5 °C 34395 hPa WSW 3.7 km/h 4.2 km/h 41 % 0 mm
22:38 -13.7 °C -20.6 °C 34395 hPa SW 6 km/h 6 km/h 41 % 0 mm
22:40 -13.7 °C -20.6 °C 34395 hPa SW 6.8 km/h 6.8 km/h 41 % 0 mm
22:45 -13.8 °C -20.7 °C 34395 hPa WSW 6.3 km/h 6.3 km/h 41 % 0 mm
22:50 -13.8 °C -20.7 °C 34395 hPa SSW 6 km/h 6 km/h 41 % 0 mm
22:55 -13.8 °C -20.7 °C 34395 hPa WSW 6 km/h 6 km/h 41 % 0 mm
23:00 -13.9 °C -20.6 °C 34395 hPa SW 4.2 km/h 4.2 km/h 42 % 0 mm
23:05 -13.9 °C -20.7 °C 34395 hPa SW 3.7 km/h 4.2 km/h 42 % 0 mm
23:10 -14 °C -20.7 °C 34395 hPa SW 9 km/h 9 km/h 42 % 0 mm
23:15 -13.9 °C -20.4 °C 34395 hPa SW 6.3 km/h 6.3 km/h 43 % 0 mm
23:20 -13.9 °C -20.4 °C 34395 hPa WSW 6.3 km/h 6.3 km/h 43 % 0 mm
23:25 -13.9 °C -20.4 °C 34395 hPa WSW 6.3 km/h 6.3 km/h 43 % 0 mm
23:26 -13.9 °C -20.3 °C 34395 hPa WSW 6.3 km/h 6.3 km/h 44 % 0 mm
23:27 -13.9 °C -20.3 °C 34395 hPa SW 6.3 km/h 6.3 km/h 44 % 0 mm
23:29 -13.9 °C -20.3 °C 34395 hPa SSW 6.8 km/h 6.8 km/h 44 % 0 mm
23:30 -13.9 °C -20.3 °C 34395 hPa SW 6 km/h 6 km/h 44 % 0 mm
23:35 -14 °C -20.3 °C 34395 hPa SW 10.3 km/h 10.3 km/h 44 % 0 mm
23:40 -14 °C -20.3 °C 34395 hPa WSW 6 km/h   44 % 0 mm
23:50 -16.1 °C -20.7 °C 34395 hPa West 2.6 km/h 5.1 km/h 54 % 0 mm
Meteo Sesrovires
Elogis d' Weather Underground - 1.5 mb

Guio original per  Jim McMurry - jmcmurry@mwt.net Adaptat per a la plantilla per  Wim van der Kuil - Leuven-Template.eu

Trobareu la nostra informacio del temps tambe a:

Weather Underground

AWEKAS